Albion, NE

10:32 AM CDT on June 27, 2017 (GMT -0500)
Albion Municipal

Weather History for KBVN - October, 2013

Change the Weather History Date:

Saturday, October 12, 2013

  Actual Average (KOFK) Record (KOFK)
Temperature  
Mean Temperature 49 °F -  
Max Temperature 63 °F 65 °F 91 °F (1975)
Min Temperature 35 °F 39 °F 18 °F (1917)
Degree Days  
Heating Degree Days 16    
Moisture  
Dew Point 31 °F    
Average Humidity 51    
Maximum Humidity 84    
Minimum Humidity 25    
Precipitation  
Precipitation 0.00 in - - ()
Sea Level Pressure  
Sea Level Pressure 30.13 in    
Wind  
Wind Speed 8 mph (NW)    
Max Wind Speed 20 mph    
Max Gust Speed 28 mph    
Visibility 10 miles    
Events      
Averages and records for this station are not official NWS values.
T = Trace of Precipitation, MM = Missing Value Source: NWS Daily Summary

Daily Weather History Graph

Daily Weather History Graph

Search for Another Location

Airport or City:

Trip Planner

Search our weather history database for the weather conditions in past years. The results will help you decide how hot, cold, wet, or windy it might be!

Date:

Astronomy

Oct. 12, 2013 Rise Set
Actual Time 7:41 AM CDT 6:55 PM CDT
Civil Twilight 7:13 AM CDT 7:23 PM CDT
Nautical Twilight 6:41 AM CDT 7:55 PM CDT
Astronomical Twilight 6:08 AM CDT 8:27 PM CDT
Moon 3:10 PM CDT (10/12) 12:41 AM CDT (10/12)
Length of Visible Light 12h 09m
Length of Day
11h 13m
First Quarter, 59% of the Moon is Illuminated
Oct 12
First Quarter
Oct 18
Full
Oct 26
Last Quarter
Nov 3
New
Nov 9
First Quarter

Hourly Weather History & Observations

Time (CDT) Temp. Windchill Dew Point Humidity Pressure Visibility Wind Dir Wind Speed Gust Speed Precip Events Conditions
12:15 AM 50.0 °F - 37.9 °F 63% 29.93 in 10.0 mi WNW 6.9 mph - N/A   Clear
12:35 AM 49.5 °F - 37.4 °F 63% 29.93 in 10.0 mi WNW 6.9 mph - N/A   Clear
12:55 AM 48.7 °F - 37.4 °F 65% 29.94 in 10.0 mi WNW 8.1 mph - N/A   Clear
1:15 AM 49.1 °F - 36.9 °F 63% 29.94 in 10.0 mi WNW 11.5 mph 16.1 mph N/A   Clear
1:35 AM 51.6 °F - 36.0 °F 55% 29.95 in 10.0 mi NW 13.8 mph 24.2 mph N/A   Clear
1:55 AM 50.7 °F - 35.6 °F 56% 29.96 in 10.0 mi NW 16.1 mph 21.9 mph N/A   Clear
2:15 AM 50.2 °F - 35.2 °F 57% 29.97 in 10.0 mi NW 10.4 mph 20.7 mph N/A   Clear
2:35 AM 49.6 °F - 35.1 °F 57% 29.99 in 10.0 mi NW 9.2 mph - N/A   Clear
2:55 AM 49.1 °F - 34.9 °F 58% 30.00 in 10.0 mi WNW 9.2 mph - N/A   Clear
3:15 AM 48.6 °F - 34.7 °F 59% 30.00 in 10.0 mi WNW 8.1 mph - N/A   Clear
3:35 AM 46.9 °F - 34.9 °F 63% 30.01 in 10.0 mi NW 5.8 mph - N/A   Clear
3:55 AM 44.8 °F 42.4 °F 34.9 °F 68% 30.01 in 10.0 mi NW 4.6 mph - N/A   Clear
4:15 AM 45.0 °F 42.6 °F 34.7 °F 67% 30.01 in 10.0 mi NNW 4.6 mph - N/A   Clear
4:35 AM 44.6 °F 43.1 °F 34.7 °F 68% 30.02 in 10.0 mi NNW 3.5 mph - N/A   Clear
4:55 AM 44.2 °F 41.8 °F 34.2 °F 68% 30.03 in 10.0 mi NW 4.6 mph - N/A   Clear
5:15 AM 42.8 °F 41.1 °F 33.3 °F 69% 30.04 in 10.0 mi NW 3.5 mph - N/A   Clear
5:35 AM 42.6 °F 39.9 °F 33.3 °F 69% 30.05 in 10.0 mi WNW 4.6 mph - N/A   Clear
5:55 AM 44.6 °F 40.7 °F 33.4 °F 65% 30.05 in 10.0 mi WNW 6.9 mph - N/A   Clear
6:15 AM 44.6 °F 40.7 °F 33.3 °F 64% 30.05 in 10.0 mi NW 6.9 mph - N/A   Clear
6:35 AM 43.7 °F 41.1 °F 33.3 °F 67% 30.06 in 10.0 mi NW 4.6 mph - N/A   Clear
6:55 AM 42.8 °F 38.0 °F 32.9 °F 68% 30.07 in 10.0 mi NW 8.1 mph - N/A   Clear
7:15 AM 41.2 °F 36.0 °F 32.5 °F 71% 30.07 in 10.0 mi NNW 8.1 mph - N/A   Clear
7:35 AM 41.5 °F 39.6 °F 32.0 °F 69% 30.08 in 10.0 mi NW 3.5 mph - N/A   Clear
7:55 AM 41.2 °F 37.3 °F 32.0 °F 70% 30.09 in 10.0 mi NW 5.8 mph - N/A   Clear
8:15 AM 43.0 °F 38.8 °F 32.0 °F 65% 30.10 in 10.0 mi NW 6.9 mph - N/A   Clear
8:35 AM 45.7 °F 42.0 °F 32.2 °F 59% 30.11 in 10.0 mi NW 6.9 mph - N/A   Clear
8:55 AM 47.8 °F - 32.0 °F 54% 30.12 in 10.0 mi WNW 6.9 mph - N/A   Clear
9:15 AM 48.7 °F - 32.0 °F 52% 30.12 in 10.0 mi NW 10.4 mph - N/A   Clear
9:35 AM 50.5 °F - 32.5 °F 50% 30.12 in 10.0 mi NW 15.0 mph 18.4 mph N/A   Clear
9:55 AM 52.7 °F - 31.3 °F 44% 30.13 in 10.0 mi NW 12.7 mph 21.9 mph N/A   Clear
10:15 AM 54.3 °F - 31.6 °F 42% 30.13 in 10.0 mi NW 13.8 mph - N/A   Clear
10:35 AM 55.6 °F - 29.7 °F 37% 30.15 in 10.0 mi NW 16.1 mph 20.7 mph N/A   Clear
10:55 AM 57.0 °F - 27.3 °F 32% 30.15 in 10.0 mi NW 19.6 mph 25.3 mph N/A   Clear
11:15 AM 57.6 °F - 26.8 °F 31% 30.16 in 10.0 mi NW 16.1 mph 27.6 mph N/A   Clear
11:35 AM 58.3 °F - 27.9 °F 31% 30.17 in 10.0 mi NW 15.0 mph 21.9 mph N/A   Clear
11:55 AM 58.6 °F - 26.6 °F 29% 30.17 in 10.0 mi NNW 18.4 mph 25.3 mph N/A   Clear
12:15 PM 59.0 °F - 26.8 °F 29% 30.18 in 10.0 mi WNW 15.0 mph 23.0 mph N/A   Clear
12:35 PM 60.1 °F - 28.4 °F 30% 30.18 in 10.0 mi NW 12.7 mph 21.9 mph N/A   Clear
12:55 PM 60.3 °F - 27.1 °F 28% 30.18 in 10.0 mi NW 18.4 mph 25.3 mph N/A   Clear
1:15 PM 61.0 °F - 27.5 °F 28% 30.17 in 10.0 mi NW 13.8 mph 24.2 mph N/A   Clear
1:35 PM 61.5 °F - 27.5 °F 28% 30.17 in 10.0 mi WNW 15.0 mph 24.2 mph N/A   Clear
1:55 PM 61.0 °F - 28.4 °F 29% 30.16 in 10.0 mi NW 12.7 mph 20.7 mph N/A   Clear
2:15 PM 61.7 °F - 28.4 °F 28% 30.16 in 10.0 mi WNW 10.4 mph 18.4 mph N/A   Clear
2:35 PM 62.4 °F - 28.6 °F 28% 30.16 in 10.0 mi NW 11.5 mph 19.6 mph N/A   Clear
2:55 PM 62.8 °F - 27.0 °F 26% 30.16 in 10.0 mi NNW 12.7 mph 21.9 mph N/A   Clear
3:15 PM 62.4 °F - 26.2 °F 25% 30.16 in 10.0 mi NNW 15.0 mph - N/A   Clear
3:35 PM 62.4 °F - 27.3 °F 26% 30.16 in 10.0 mi NNW 12.7 mph 21.9 mph N/A   Clear
3:55 PM 63.0 °F - 27.0 °F 26% 30.16 in 10.0 mi NNW 13.8 mph 20.7 mph N/A   Clear
4:15 PM 62.6 °F - 26.6 °F 26% 30.16 in 10.0 mi NW 10.4 mph - N/A   Clear
4:35 PM 62.6 °F - 26.4 °F 25% 30.16 in 10.0 mi NW 10.4 mph 18.4 mph N/A   Clear
4:55 PM 61.7 °F - 27.7 °F 28% 30.16 in 10.0 mi NW 11.5 mph 17.3 mph N/A   Clear
5:15 PM 61.9 °F - 27.3 °F 27% 30.17 in 10.0 mi NNW 10.4 mph 16.1 mph N/A   Clear
5:35 PM 61.5 °F - 27.3 °F 27% 30.18 in 10.0 mi NW 8.1 mph - N/A   Clear
5:55 PM 60.4 °F - 28.0 °F 29% 30.18 in 10.0 mi NW 6.9 mph - N/A   Clear
6:15 PM 58.8 °F - 29.5 °F 33% 30.18 in 10.0 mi NW 5.8 mph - N/A   Clear
6:35 PM 58.5 °F - 27.7 °F 31% 30.19 in 10.0 mi NNW 4.6 mph - N/A   Clear
6:55 PM 56.7 °F - 27.3 °F 33% 30.19 in 10.0 mi Calm Calm - N/A   Clear
7:15 PM 48.4 °F - 32.0 °F 53% 30.20 in 10.0 mi North 4.6 mph - N/A   Clear
7:35 PM 50.0 °F - 29.8 °F 46% 30.20 in 10.0 mi Calm Calm - N/A   Clear
7:55 PM 49.5 °F - 29.3 °F 46% 30.21 in 10.0 mi NNE 5.8 mph - N/A   Clear
8:15 PM 46.2 °F 45.0 °F 31.1 °F 56% 30.21 in 10.0 mi NW 3.5 mph - N/A   Clear
8:35 PM 45.3 °F - 31.5 °F 58% 30.22 in 10.0 mi Calm Calm - N/A   Clear
8:55 PM 40.8 °F - 32.9 °F 73% 30.22 in 10.0 mi Calm Calm - N/A   Clear
9:15 PM 39.4 °F - 32.2 °F 75% 30.23 in 10.0 mi Calm Calm - N/A   Clear
9:35 PM 40.1 °F - 32.9 °F 75% 30.24 in 10.0 mi Calm Calm - N/A   Clear
9:55 PM 38.3 °F - 32.2 °F 79% 30.25 in 10.0 mi Calm Calm - N/A   Clear
10:15 PM 38.8 °F - 32.0 °F 76% 30.26 in 10.0 mi Calm Calm - N/A   Clear
10:35 PM 38.8 °F - 32.0 °F 76% 30.27 in 10.0 mi Calm Calm - N/A   Clear
10:55 PM 39.0 °F - 32.0 °F 76% 30.27 in 10.0 mi Calm Calm - N/A   Clear
11:15 PM 36.3 °F - 31.1 °F 81% 30.27 in 10.0 mi Calm Calm - N/A   Clear
11:35 PM 35.4 °F - 30.9 °F 84% 30.28 in 10.0 mi Calm Calm - N/A   Clear
11:55 PM 36.5 °F - 30.9 °F 80% 30.29 in 10.0 mi Calm Calm - N/A   Clear